Pombo Uno — EAMX — position and weather

sailwx.info

Track history (hours):
 
Tides and Currents Weather Stations Pressure Air Temp Water Temp Dewpoint Dewpoint Depression Visibility Wind Speed Wind Dir Waves Ship Positions

Pombo Uno

Last reported at 2017-Apr-03 03:30 UTC. Time now 2017-Apr-23 17:54 UTC.
Position N 43°52' W 007°28'.
Warning: this ship's position is 20 days out of date.

Length 30 m.

Type: Fishing. MMSI: 224022170.

Date/timePositionNaut miles runAvg speedWind from/ knotsBaromVisibWave heightAir tempDewpointWater temp
2017-Apr-03 03:30N 43°52' W 007°28'3 6.2
2017-Apr-03 03:00N 43°50' W 007°31'3 6.1
2017-Apr-03 02:31N 43°47' W 007°33'3 6.5
2017-Apr-03 02:00N 43°44' W 007°35'3 6.7
2017-Apr-03 01:31N 43°41' W 007°36'0 0.6
2017-Apr-03 01:00N 43°41' W 007°36'0 0.0
2017-Apr-03 00:31N 43°41' W 007°36'0 0.0
2017-Apr-03 00:00N 43°41' W 007°36'  
2017-Mar-31 14:30N 43°41' W 007°36'0 0.4
2017-Mar-31 14:01N 43°41' W 007°36'2 3.0
2017-Mar-31 13:31N 43°42' W 007°36'5 9.1
2017-Mar-31 13:01N 43°47' W 007°34'5 9.1
2017-Mar-31 12:30N 43°51' W 007°33'5 8.4
2017-Mar-31 11:58N 43°56' W 007°31'7 0.4
2017-Mar-30 17:08N 43°52' W 007°41'5 8.7
2017-Mar-30 16:34N 43°48' W 007°38'7 7.1
2017-Mar-30 15:34N 43°41' W 007°36'0 0.0
2017-Mar-30 14:34N 43°41' W 007°36'0 0.0
2017-Mar-30 13:33N 43°41' W 007°36'8 8.3
2017-Mar-30 12:33N 43°49' W 007°34'82 2.0
2017-Mar-28 19:33N 43°37' W 005°41'3 3.2
2017-Mar-28 18:33N 43°33' W 005°42'0 0.0
2017-Mar-28 17:33N 43°33' W 005°42'8 7.8
2017-Mar-28 16:33N 43°36' W 005°32'8 0.4
2017-Mar-27 20:24N 43°33' W 005°42'0 0.1
2017-Mar-27 19:33N 43°33' W 005°42'0 0.0
2017-Mar-27 18:33N 43°33' W 005°42'0 0.0
2017-Mar-27 17:33N 43°33' W 005°42'0 0.0
2017-Mar-27 16:33N 43°33' W 005°42'0 0.0
2017-Mar-27 15:33N 43°33' W 005°42'2 1.7
2017-Mar-27 14:33N 43°34' W 005°40'10 9.6
2017-Mar-27 13:33N 43°39' W 005°28'15 2.8
2017-Mar-27 08:06N 43°49' W 005°12'10 2.7
2017-Mar-27 04:26N 43°46' W 005°25'8 8.8
2017-Mar-27 03:31N 43°40' W 005°32'8 8.7
2017-Mar-27 02:33N 43°34' W 005°40'1 1.2
2017-Mar-27 01:33N 43°33' W 005°42'  
2017-Mar-24 16:05N 43°33' W 005°42'0 0.1
2017-Mar-24 15:33N 43°33' W 005°42'5 5.4
2017-Mar-24 14:33N 43°36' W 005°36'12 9.5
2017-Mar-24 13:18N 43°42' W 005°21'9 1.8
2017-Mar-24 08:07N 43°49' W 005°12'  
Track history (hours):
 
Tides and Currents Weather Stations Pressure Air Temp Water Temp Dewpoint Dewpoint Depression Visibility Wind Speed Wind Dir Waves Ship Positions

Pombo Uno

Last reported at 2017-Apr-03 03:30 UTC. Time now 2017-Apr-23 17:54 UTC.
Position N 43°52' W 007°28'.
Warning: this ship's position is 20 days out of date.

Length 30 m.

Type: Fishing. MMSI: 224022170.

Date/timePositionNaut miles runAvg speedWind from/ knotsBaromVisibWave heightAir tempDewpointWater temp
2017-Apr-03 03:30N 43°52' W 007°28'3 6.2
2017-Apr-03 03:00N 43°50' W 007°31'3 6.1
2017-Apr-03 02:31N 43°47' W 007°33'3 6.5
2017-Apr-03 02:00N 43°44' W 007°35'3 6.7
2017-Apr-03 01:31N 43°41' W 007°36'0 0.6
2017-Apr-03 01:00N 43°41' W 007°36'0 0.0
2017-Apr-03 00:31N 43°41' W 007°36'0 0.0
2017-Apr-03 00:00N 43°41' W 007°36'  
2017-Mar-31 14:30N 43°41' W 007°36'0 0.4
2017-Mar-31 14:01N 43°41' W 007°36'2 3.0
2017-Mar-31 13:31N 43°42' W 007°36'5 9.1
2017-Mar-31 13:01N 43°47' W 007°34'5 9.1
2017-Mar-31 12:30N 43°51' W 007°33'5 8.4
2017-Mar-31 11:58N 43°56' W 007°31'7 0.4
2017-Mar-30 17:08N 43°52' W 007°41'5 8.7
2017-Mar-30 16:34N 43°48' W 007°38'7 7.1
2017-Mar-30 15:34N 43°41' W 007°36'0 0.0
2017-Mar-30 14:34N 43°41' W 007°36'0 0.0
2017-Mar-30 13:33N 43°41' W 007°36'8 8.3
2017-Mar-30 12:33N 43°49' W 007°34'82 2.0
2017-Mar-28 19:33N 43°37' W 005°41'3 3.2
2017-Mar-28 18:33N 43°33' W 005°42'0 0.0
2017-Mar-28 17:33N 43°33' W 005°42'8 7.8
2017-Mar-28 16:33N 43°36' W 005°32'8 0.4
2017-Mar-27 20:24N 43°33' W 005°42'0 0.1
2017-Mar-27 19:33N 43°33' W 005°42'0 0.0
2017-Mar-27 18:33N 43°33' W 005°42'0 0.0
2017-Mar-27 17:33N 43°33' W 005°42'0 0.0
2017-Mar-27 16:33N 43°33' W 005°42'0 0.0
2017-Mar-27 15:33N 43°33' W 005°42'2 1.7
2017-Mar-27 14:33N 43°34' W 005°40'10 9.6
2017-Mar-27 13:33N 43°39' W 005°28'15 2.8
2017-Mar-27 08:06N 43°49' W 005°12'10 2.7
2017-Mar-27 04:26N 43°46' W 005°25'8 8.8
2017-Mar-27 03:31N 43°40' W 005°32'8 8.7
2017-Mar-27 02:33N 43°34' W 005°40'1 1.2
2017-Mar-27 01:33N 43°33' W 005°42'  
2017-Mar-24 16:05N 43°33' W 005°42'0 0.1
2017-Mar-24 15:33N 43°33' W 005°42'5 5.4
2017-Mar-24 14:33N 43°36' W 005°36'12 9.5
2017-Mar-24 13:18N 43°42' W 005°21'9 1.8
2017-Mar-24 08:07N 43°49' W 005°12'  

Dump ship's entire track history